KGS weather

Kos Airport
Kos Island, Dodecanese, Greece

Public forecast

Using degrees Celsius for public forecast. Weather courtesy of forecast.io.

Current aviation weather report (METAR) for Kos Airport

Retrieved 2019/10/21 06:20 UTC (0 seconds ago):

LGKO 210620Z 36012KT CAVOK 22/18 Q1017

Aviation forecast (TAF) for Kos Airport

Retrieved 2019/10/21 06:12 UTC (0 seconds ago):

TAF LGKO 210500Z 2106/2206 35015KT 9999 FEW018 BECMG 2112/2114 34015G25KT BECMG 2201/2203 02015KT